sensor_id;sensor_type;location;lat;lon;timestamp;P1;durP1;ratioP1;P2;durP2;ratioP2
3865;SDS011;1948;53.250;10.412;2023-06-19T00:00:10;10.83;;;9.90;;
3865;SDS011;1948;53.250;10.412;2023-06-19T00:02:40;11.47;;;10.43;;
3865;SDS011;1948;53.250;10.412;2023-06-19T00:05:08;11.47;;;10.40;;
3865;SDS011;1948;53.250;10.412;2023-06-19T00:07:36;12.77;;;10.07;;
3865;SDS011;1948;53.250;10.412;2023-06-19T00:10:06;16.57;;;10.53;;
3865;SDS011;1948;53.250;10.412;2023-06-19T00:12:33;11.80;;;10.40;;
3865;SDS011;1948;53.250;10.412;2023-06-19T00:15:00;10.60;;;9.80;;
3865;SDS011;1948;53.250;10.412;2023-06-19T00:17:29;12.30;;;10.00;;
3865;SDS011;1948;53.250;10.412;2023-06-19T00:19:56;11.00;;;10.20;;
3865;SDS011;1948;53.250;10.412;2023-06-19T00:22:24;12.80;;;11.50;;
3865;SDS011;1948;53.250;10.412;2023-06-19T00:24:56;10.87;;;9.77;;
3865;SDS011;1948;53.250;10.412;2023-06-19T00:27:23;11.10;;;10.10;;
3865;SDS011;1948;53.250;10.412;2023-06-19T00:29:50;10.80;;;9.73;;
3865;SDS011;1948;53.250;10.412;2023-06-19T00:32:17;11.00;;;10.23;;
3865;SDS011;1948;53.250;10.412;2023-06-19T00:34:44;10.80;;;10.10;;
3865;SDS011;1948;53.250;10.412;2023-06-19T00:37:11;11.37;;;10.47;;
3865;SDS011;1948;53.250;10.412;2023-06-19T00:39:43;12.50;;;10.40;;
3865;SDS011;1948;53.250;10.412;2023-06-19T00:42:10;11.20;;;10.40;;
3865;SDS011;1948;53.250;10.412;2023-06-19T00:44:37;12.07;;;10.77;;
3865;SDS011;1948;53.250;10.412;2023-06-19T00:47:05;11.63;;;10.53;;
3865;SDS011;1948;53.250;10.412;2023-06-19T00:49:32;11.53;;;10.20;;
3865;SDS011;1948;53.250;10.412;2023-06-19T00:51:59;11.93;;;10.53;;
3865;SDS011;1948;53.250;10.412;2023-06-19T00:54:26;11.80;;;10.50;;
3865;SDS011;1948;53.250;10.412;2023-06-19T00:56:53;11.33;;;10.43;;
3865;SDS011;1948;53.250;10.412;2023-06-19T00:59:20;17.10;;;10.43;;
3865;SDS011;1948;53.250;10.412;2023-06-19T01:01:50;16.43;;;11.07;;
3865;SDS011;1948;53.250;10.412;2023-06-19T01:04:19;11.30;;;9.93;;
3865;SDS011;1948;53.250;10.412;2023-06-19T01:06:57;11.30;;;10.33;;
3865;SDS011;1948;53.250;10.412;2023-06-19T01:09:38;11.47;;;10.60;;
3865;SDS011;1948;53.250;10.412;2023-06-19T01:12:19;10.80;;;10.10;;
3865;SDS011;1948;53.250;10.412;2023-06-19T01:14:53;14.53;;;10.67;;
3865;SDS011;1948;53.250;10.412;2023-06-19T01:17:28;11.97;;;10.77;;
3865;SDS011;1948;53.250;10.412;2023-06-19T01:19:56;11.93;;;10.70;;
3865;SDS011;1948;53.250;10.412;2023-06-19T01:22:25;11.93;;;10.90;;
3865;SDS011;1948;53.250;10.412;2023-06-19T01:24:56;11.73;;;10.80;;
3865;SDS011;1948;53.250;10.412;2023-06-19T01:27:26;18.33;;;10.53;;
3865;SDS011;1948;53.250;10.412;2023-06-19T01:29:57;14.93;;;10.73;;
3865;SDS011;1948;53.250;10.412;2023-06-19T01:35:26;11.63;;;10.53;;
3865;SDS011;1948;53.250;10.412;2023-06-19T01:37:56;11.97;;;10.97;;
3865;SDS011;1948;53.250;10.412;2023-06-19T01:40:25;10.43;;;9.63;;
3865;SDS011;1948;53.250;10.412;2023-06-19T01:42:54;12.10;;;11.20;;
3865;SDS011;1948;53.250;10.412;2023-06-19T01:45:25;12.63;;;11.53;;
3865;SDS011;1948;53.250;10.412;2023-06-19T01:47:55;12.67;;;11.57;;
3865;SDS011;1948;53.250;10.412;2023-06-19T01:50:23;12.63;;;11.17;;
3865;SDS011;1948;53.250;10.412;2023-06-19T01:52:51;12.40;;;11.30;;
3865;SDS011;1948;53.250;10.412;2023-06-19T01:55:18;14.20;;;11.23;;
3865;SDS011;1948;53.250;10.412;2023-06-19T01:57:46;13.47;;;11.13;;
3865;SDS011;1948;53.250;10.412;2023-06-19T02:00:16;11.90;;;10.80;;
3865;SDS011;1948;53.250;10.412;2023-06-19T02:02:44;11.33;;;10.47;;
3865;SDS011;1948;53.250;10.412;2023-06-19T02:05:15;24.90;;;11.27;;
3865;SDS011;1948;53.250;10.412;2023-06-19T02:07:44;11.37;;;10.53;;
3865;SDS011;1948;53.250;10.412;2023-06-19T02:10:11;12.30;;;11.20;;
3865;SDS011;1948;53.250;10.412;2023-06-19T02:12:40;12.20;;;11.10;;
3865;SDS011;1948;53.250;10.412;2023-06-19T02:15:07;12.40;;;11.30;;
3865;SDS011;1948;53.250;10.412;2023-06-19T02:17:39;12.40;;;11.30;;
3865;SDS011;1948;53.250;10.412;2023-06-19T02:20:09;12.33;;;11.23;;
3865;SDS011;1948;53.250;10.412;2023-06-19T02:22:38;12.80;;;11.60;;
3865;SDS011;1948;53.250;10.412;2023-06-19T02:25:06;11.90;;;10.70;;
3865;SDS011;1948;53.250;10.412;2023-06-19T02:27:38;23.70;;;11.57;;
3865;SDS011;1948;53.250;10.412;2023-06-19T02:30:05;12.53;;;11.23;;
3865;SDS011;1948;53.250;10.412;2023-06-19T02:32:32;12.90;;;11.60;;
3865;SDS011;1948;53.250;10.412;2023-06-19T02:35:03;14.63;;;11.30;;
3865;SDS011;1948;53.250;10.412;2023-06-19T02:37:35;12.67;;;11.43;;
3865;SDS011;1948;53.250;10.412;2023-06-19T02:40:04;11.63;;;10.73;;
3865;SDS011;1948;53.250;10.412;2023-06-19T02:42:32;11.90;;;10.80;;
3865;SDS011;1948;53.250;10.412;2023-06-19T02:44:59;12.67;;;11.47;;
3865;SDS011;1948;53.250;10.412;2023-06-19T02:47:30;13.07;;;10.93;;
3865;SDS011;1948;53.250;10.412;2023-06-19T02:50:03;12.77;;;11.40;;
3865;SDS011;1948;53.250;10.412;2023-06-19T02:52:31;13.07;;;11.83;;
3865;SDS011;1948;53.250;10.412;2023-06-19T02:55:00;13.67;;;11.77;;
3865;SDS011;1948;53.250;10.412;2023-06-19T02:57:27;23.03;;;11.43;;
3865;SDS011;1948;53.250;10.412;2023-06-19T02:59:54;19.60;;;11.80;;
3865;SDS011;1948;53.250;10.412;2023-06-19T03:02:21;12.30;;;11.13;;
3865;SDS011;1948;53.250;10.412;2023-06-19T03:04:48;12.33;;;11.30;;
3865;SDS011;1948;53.250;10.412;2023-06-19T03:07:17;19.60;;;10.43;;
3865;SDS011;1948;53.250;10.412;2023-06-19T03:09:46;15.00;;;11.67;;
3865;SDS011;1948;53.250;10.412;2023-06-19T03:12:13;15.90;;;11.70;;
3865;SDS011;1948;53.250;10.412;2023-06-19T03:14:42;12.50;;;11.20;;
3865;SDS011;1948;53.250;10.412;2023-06-19T03:17:09;12.37;;;11.03;;
3865;SDS011;1948;53.250;10.412;2023-06-19T03:19:36;11.87;;;10.90;;
3865;SDS011;1948;53.250;10.412;2023-06-19T03:22:03;12.27;;;10.60;;
3865;SDS011;1948;53.250;10.412;2023-06-19T03:24:31;12.27;;;10.97;;
3865;SDS011;1948;53.250;10.412;2023-06-19T03:26:58;12.30;;;11.10;;
3865;SDS011;1948;53.250;10.412;2023-06-19T03:29:25;12.23;;;11.30;;
3865;SDS011;1948;53.250;10.412;2023-06-19T03:31:51;12.43;;;11.30;;
3865;SDS011;1948;53.250;10.412;2023-06-19T03:34:22;12.63;;;11.43;;
3865;SDS011;1948;53.250;10.412;2023-06-19T03:36:53;12.60;;;11.60;;
3865;SDS011;1948;53.250;10.412;2023-06-19T03:39:24;21.63;;;11.43;;
3865;SDS011;1948;53.250;10.412;2023-06-19T03:41:51;14.80;;;12.10;;
3865;SDS011;1948;53.250;10.412;2023-06-19T03:44:18;12.37;;;11.20;;
3865;SDS011;1948;53.250;10.412;2023-06-19T03:46:45;11.80;;;10.70;;
3865;SDS011;1948;53.250;10.412;2023-06-19T03:49:13;13.03;;;11.83;;
3865;SDS011;1948;53.250;10.412;2023-06-19T03:51:40;12.20;;;11.27;;
3865;SDS011;1948;53.250;10.412;2023-06-19T03:54:07;15.40;;;11.00;;
3865;SDS011;1948;53.250;10.412;2023-06-19T03:56:34;12.87;;;10.80;;
3865;SDS011;1948;53.250;10.412;2023-06-19T03:59:01;12.63;;;11.40;;
3865;SDS011;1948;53.250;10.412;2023-06-19T04:01:28;11.90;;;11.00;;
3865;SDS011;1948;53.250;10.412;2023-06-19T04:03:55;12.20;;;11.07;;
3865;SDS011;1948;53.250;10.412;2023-06-19T04:06:25;12.27;;;11.23;;
3865;SDS011;1948;53.250;10.412;2023-06-19T04:08:55;11.83;;;10.67;;
3865;SDS011;1948;53.250;10.412;2023-06-19T04:11:21;12.67;;;11.57;;
3865;SDS011;1948;53.250;10.412;2023-06-19T04:13:48;12.00;;;10.90;;
3865;SDS011;1948;53.250;10.412;2023-06-19T04:16:15;12.87;;;11.70;;
3865;SDS011;1948;53.250;10.412;2023-06-19T04:18:42;16.73;;;11.50;;
3865;SDS011;1948;53.250;10.412;2023-06-19T04:21:09;12.10;;;10.90;;
3865;SDS011;1948;53.250;10.412;2023-06-19T04:23:36;12.80;;;11.70;;
3865;SDS011;1948;53.250;10.412;2023-06-19T04:26:03;11.70;;;10.80;;
3865;SDS011;1948;53.250;10.412;2023-06-19T04:28:30;11.90;;;10.70;;
3865;SDS011;1948;53.250;10.412;2023-06-19T04:30:57;11.80;;;10.90;;
3865;SDS011;1948;53.250;10.412;2023-06-19T04:33:29;11.73;;;10.90;;
3865;SDS011;1948;53.250;10.412;2023-06-19T04:35:56;23.60;;;12.40;;
3865;SDS011;1948;53.250;10.412;2023-06-19T04:38:28;18.33;;;11.50;;
3865;SDS011;1948;53.250;10.412;2023-06-19T04:40:54;19.90;;;12.23;;
3865;SDS011;1948;53.250;10.412;2023-06-19T04:43:23;12.93;;;11.83;;
3865;SDS011;1948;53.250;10.412;2023-06-19T04:45:51;28.43;;;12.00;;
3865;SDS011;1948;53.250;10.412;2023-06-19T04:48:18;34.60;;;12.03;;
3865;SDS011;1948;53.250;10.412;2023-06-19T04:50:45;13.73;;;10.63;;
3865;SDS011;1948;53.250;10.412;2023-06-19T04:53:14;14.40;;;11.40;;
3865;SDS011;1948;53.250;10.412;2023-06-19T04:55:43;18.90;;;14.63;;
3865;SDS011;1948;53.250;10.412;2023-06-19T04:58:13;11.10;;;10.30;;
3865;SDS011;1948;53.250;10.412;2023-06-19T05:00:40;12.83;;;11.57;;
3865;SDS011;1948;53.250;10.412;2023-06-19T05:03:17;13.97;;;11.33;;
3865;SDS011;1948;53.250;10.412;2023-06-19T05:05:44;13.07;;;11.87;;
3865;SDS011;1948;53.250;10.412;2023-06-19T05:08:12;12.13;;;11.03;;
3865;SDS011;1948;53.250;10.412;2023-06-19T05:10:39;18.43;;;11.20;;
3865;SDS011;1948;53.250;10.412;2023-06-19T05:13:06;14.10;;;11.17;;
3865;SDS011;1948;53.250;10.412;2023-06-19T05:15:33;12.27;;;11.27;;
3865;SDS011;1948;53.250;10.412;2023-06-19T05:18:00;14.53;;;13.07;;
3865;SDS011;1948;53.250;10.412;2023-06-19T05:20:27;13.20;;;11.60;;
3865;SDS011;1948;53.250;10.412;2023-06-19T05:22:59;12.00;;;11.00;;
3865;SDS011;1948;53.250;10.412;2023-06-19T05:25:25;11.73;;;10.70;;
3865;SDS011;1948;53.250;10.412;2023-06-19T05:27:53;12.47;;;11.33;;
3865;SDS011;1948;53.250;10.412;2023-06-19T05:30:20;12.03;;;10.93;;
3865;SDS011;1948;53.250;10.412;2023-06-19T05:32:48;11.63;;;10.67;;
3865;SDS011;1948;53.250;10.412;2023-06-19T05:35:15;12.33;;;11.27;;
3865;SDS011;1948;53.250;10.412;2023-06-19T05:37:45;16.90;;;11.13;;
3865;SDS011;1948;53.250;10.412;2023-06-19T05:40:12;13.07;;;11.87;;
3865;SDS011;1948;53.250;10.412;2023-06-19T05:42:39;13.13;;;11.87;;
3865;SDS011;1948;53.250;10.412;2023-06-19T05:45:07;11.47;;;10.47;;
3865;SDS011;1948;53.250;10.412;2023-06-19T05:47:34;12.13;;;10.93;;
3865;SDS011;1948;53.250;10.412;2023-06-19T05:50:01;12.57;;;11.23;;
3865;SDS011;1948;53.250;10.412;2023-06-19T05:52:32;13.40;;;12.00;;
3865;SDS011;1948;53.250;10.412;2023-06-19T05:54:59;12.20;;;11.27;;
3865;SDS011;1948;53.250;10.412;2023-06-19T05:57:28;11.60;;;10.70;;
3865;SDS011;1948;53.250;10.412;2023-06-19T05:59:58;13.07;;;11.97;;
3865;SDS011;1948;53.250;10.412;2023-06-19T06:02:25;12.67;;;11.57;;
3865;SDS011;1948;53.250;10.412;2023-06-19T06:04:52;15.40;;;11.80;;
3865;SDS011;1948;53.250;10.412;2023-06-19T06:07:19;15.10;;;11.23;;
3865;SDS011;1948;53.250;10.412;2023-06-19T06:09:48;13.70;;;12.43;;
3865;SDS011;1948;53.250;10.412;2023-06-19T06:12:17;11.90;;;10.90;;
3865;SDS011;1948;53.250;10.412;2023-06-19T06:14:44;16.80;;;11.60;;
3865;SDS011;1948;53.250;10.412;2023-06-19T06:17:11;13.60;;;12.23;;
3865;SDS011;1948;53.250;10.412;2023-06-19T06:19:38;14.40;;;13.00;;
3865;SDS011;1948;53.250;10.412;2023-06-19T06:22:08;13.53;;;12.23;;
3865;SDS011;1948;53.250;10.412;2023-06-19T06:24:37;13.53;;;12.33;;
3865;SDS011;1948;53.250;10.412;2023-06-19T06:27:09;13.90;;;12.50;;
3865;SDS011;1948;53.250;10.412;2023-06-19T06:29:36;23.80;;;13.53;;
3865;SDS011;1948;53.250;10.412;2023-06-19T06:32:07;16.10;;;12.50;;
3865;SDS011;1948;53.250;10.412;2023-06-19T06:34:35;23.70;;;12.37;;
3865;SDS011;1948;53.250;10.412;2023-06-19T06:37:02;12.93;;;11.63;;
3865;SDS011;1948;53.250;10.412;2023-06-19T06:39:33;14.17;;;12.97;;
3865;SDS011;1948;53.250;10.412;2023-06-19T06:42:00;13.70;;;12.40;;
3865;SDS011;1948;53.250;10.412;2023-06-19T06:44:30;18.10;;;12.07;;
3865;SDS011;1948;53.250;10.412;2023-06-19T06:46:59;13.73;;;12.43;;
3865;SDS011;1948;53.250;10.412;2023-06-19T06:49:27;15.90;;;13.10;;
3865;SDS011;1948;53.250;10.412;2023-06-19T06:51:56;14.77;;;12.10;;
3865;SDS011;1948;53.250;10.412;2023-06-19T06:54:23;14.50;;;13.10;;
3865;SDS011;1948;53.250;10.412;2023-06-19T06:56:51;24.77;;;12.80;;
3865;SDS011;1948;53.250;10.412;2023-06-19T06:59:22;13.83;;;12.50;;
3865;SDS011;1948;53.250;10.412;2023-06-19T07:01:49;14.40;;;12.70;;
3865;SDS011;1948;53.250;10.412;2023-06-19T07:04:18;16.80;;;13.10;;
3865;SDS011;1948;53.250;10.412;2023-06-19T07:06:47;13.73;;;12.63;;
3865;SDS011;1948;53.250;10.412;2023-06-19T07:09:15;23.83;;;13.50;;
3865;SDS011;1948;53.250;10.412;2023-06-19T07:11:42;17.63;;;12.60;;
3865;SDS011;1948;53.250;10.412;2023-06-19T07:14:09;14.10;;;12.70;;
3865;SDS011;1948;53.250;10.412;2023-06-19T07:16:36;14.70;;;13.30;;
3865;SDS011;1948;53.250;10.412;2023-06-19T07:19:03;14.77;;;13.47;;
3865;SDS011;1948;53.250;10.412;2023-06-19T07:21:30;18.40;;;13.30;;
3865;SDS011;1948;53.250;10.412;2023-06-19T07:23:57;14.00;;;12.90;;
3865;SDS011;1948;53.250;10.412;2023-06-19T07:26:25;14.57;;;13.17;;
3865;SDS011;1948;53.250;10.412;2023-06-19T07:28:52;20.97;;;13.03;;
3865;SDS011;1948;53.250;10.412;2023-06-19T07:31:24;16.40;;;13.10;;
3865;SDS011;1948;53.250;10.412;2023-06-19T07:33:53;16.77;;;13.30;;
3865;SDS011;1948;53.250;10.412;2023-06-19T07:36:22;16.17;;;12.67;;
3865;SDS011;1948;53.250;10.412;2023-06-19T07:38:52;14.60;;;12.67;;
3865;SDS011;1948;53.250;10.412;2023-06-19T07:41:19;20.07;;;12.57;;
3865;SDS011;1948;53.250;10.412;2023-06-19T07:43:46;15.33;;;13.30;;
3865;SDS011;1948;53.250;10.412;2023-06-19T07:46:13;14.40;;;13.00;;
3865;SDS011;1948;53.250;10.412;2023-06-19T07:48:43;18.67;;;13.40;;
3865;SDS011;1948;53.250;10.412;2023-06-19T07:51:15;18.13;;;13.00;;
3865;SDS011;1948;53.250;10.412;2023-06-19T07:53:42;17.57;;;13.67;;
3865;SDS011;1948;53.250;10.412;2023-06-19T07:56:11;14.53;;;13.03;;
3865;SDS011;1948;53.250;10.412;2023-06-19T07:58:38;14.73;;;13.13;;
3865;SDS011;1948;53.250;10.412;2023-06-19T08:01:05;15.40;;;14.00;;
3865;SDS011;1948;53.250;10.412;2023-06-19T08:03:32;13.57;;;12.27;;
3865;SDS011;1948;53.250;10.412;2023-06-19T08:06:00;14.33;;;13.13;;
3865;SDS011;1948;53.250;10.412;2023-06-19T08:08:29;21.93;;;12.07;;
3865;SDS011;1948;53.250;10.412;2023-06-19T08:11:00;14.27;;;12.50;;
3865;SDS011;1948;53.250;10.412;2023-06-19T08:13:27;12.83;;;11.77;;
3865;SDS011;1948;53.250;10.412;2023-06-19T08:15:54;14.37;;;13.07;;
3865;SDS011;1948;53.250;10.412;2023-06-19T08:18:21;13.97;;;11.97;;
3865;SDS011;1948;53.250;10.412;2023-06-19T08:20:48;12.60;;;11.60;;
3865;SDS011;1948;53.250;10.412;2023-06-19T08:23:20;13.30;;;12.30;;
3865;SDS011;1948;53.250;10.412;2023-06-19T08:25:47;13.27;;;12.13;;
3865;SDS011;1948;53.250;10.412;2023-06-19T08:28:14;22.60;;;12.10;;
3865;SDS011;1948;53.250;10.412;2023-06-19T08:30:49;12.27;;;11.03;;
3865;SDS011;1948;53.250;10.412;2023-06-19T08:33:20;13.57;;;12.30;;
3865;SDS011;1948;53.250;10.412;2023-06-19T08:35:47;15.00;;;13.30;;
3865;SDS011;1948;53.250;10.412;2023-06-19T08:38:14;14.10;;;12.40;;
3865;SDS011;1948;53.250;10.412;2023-06-19T08:40:42;12.60;;;11.43;;
3865;SDS011;1948;53.250;10.412;2023-06-19T08:43:13;13.70;;;11.23;;
3865;SDS011;1948;53.250;10.412;2023-06-19T08:45:40;15.70;;;12.23;;
3865;SDS011;1948;53.250;10.412;2023-06-19T08:48:12;14.63;;;12.93;;
3865;SDS011;1948;53.250;10.412;2023-06-19T08:50:42;12.83;;;11.70;;
3865;SDS011;1948;53.250;10.412;2023-06-19T08:53:09;12.90;;;11.50;;
3865;SDS011;1948;53.250;10.412;2023-06-19T08:55:38;13.53;;;12.43;;
3865;SDS011;1948;53.250;10.412;2023-06-19T08:58:09;18.40;;;11.83;;
3865;SDS011;1948;53.250;10.412;2023-06-19T09:00:39;11.87;;;11.07;;
3865;SDS011;1948;53.250;10.412;2023-06-19T09:03:09;13.73;;;12.33;;
3865;SDS011;1948;53.250;10.412;2023-06-19T09:05:43;14.00;;;12.80;;
3865;SDS011;1948;53.250;10.412;2023-06-19T09:08:17;13.50;;;12.30;;
3865;SDS011;1948;53.250;10.412;2023-06-19T09:10:55;13.53;;;12.33;;
3865;SDS011;1948;53.250;10.412;2023-06-19T09:13:31;21.90;;;12.80;;
3865;SDS011;1948;53.250;10.412;2023-06-19T09:16:05;13.83;;;12.43;;
3865;SDS011;1948;53.250;10.412;2023-06-19T09:18:44;13.53;;;12.43;;
3865;SDS011;1948;53.250;10.412;2023-06-19T09:21:21;14.23;;;12.77;;
3865;SDS011;1948;53.250;10.412;2023-06-19T09:23:48;12.43;;;11.37;;
3865;SDS011;1948;53.250;10.412;2023-06-19T09:26:18;13.10;;;12.10;;
3865;SDS011;1948;53.250;10.412;2023-06-19T09:28:50;15.90;;;12.00;;
3865;SDS011;1948;53.250;10.412;2023-06-19T09:31:19;16.50;;;11.20;;
3865;SDS011;1948;53.250;10.412;2023-06-19T09:33:46;12.67;;;11.47;;
3865;SDS011;1948;53.250;10.412;2023-06-19T09:36:15;21.40;;;12.90;;
3865;SDS011;1948;53.250;10.412;2023-06-19T09:38:42;12.93;;;11.80;;
3865;SDS011;1948;53.250;10.412;2023-06-19T09:41:11;19.93;;;12.57;;
3865;SDS011;1948;53.250;10.412;2023-06-19T09:43:46;15.43;;;12.70;;
3865;SDS011;1948;53.250;10.412;2023-06-19T09:46:15;12.00;;;11.10;;
3865;SDS011;1948;53.250;10.412;2023-06-19T09:48:45;12.03;;;10.87;;
3865;SDS011;1948;53.250;10.412;2023-06-19T09:51:22;17.07;;;11.90;;
3865;SDS011;1948;53.250;10.412;2023-06-19T09:53:57;12.77;;;11.60;;
3865;SDS011;1948;53.250;10.412;2023-06-19T09:56:28;16.37;;;11.83;;
3865;SDS011;1948;53.250;10.412;2023-06-19T09:58:56;12.70;;;11.63;;
3865;SDS011;1948;53.250;10.412;2023-06-19T10:01:29;20.00;;;13.37;;
3865;SDS011;1948;53.250;10.412;2023-06-19T10:04:05;15.10;;;12.10;;
3865;SDS011;1948;53.250;10.412;2023-06-19T10:06:44;17.87;;;13.07;;
3865;SDS011;1948;53.250;10.412;2023-06-19T10:09:14;15.13;;;13.17;;
3865;SDS011;1948;53.250;10.412;2023-06-19T10:11:48;13.00;;;12.00;;
3865;SDS011;1948;53.250;10.412;2023-06-19T10:14:20;13.23;;;12.13;;
3865;SDS011;1948;53.250;10.412;2023-06-19T10:16:48;15.03;;;12.23;;
3865;SDS011;1948;53.250;10.412;2023-06-19T10:19:21;12.90;;;11.70;;
3865;SDS011;1948;53.250;10.412;2023-06-19T10:21:49;19.60;;;11.63;;
3865;SDS011;1948;53.250;10.412;2023-06-19T10:24:27;18.30;;;11.50;;
3865;SDS011;1948;53.250;10.412;2023-06-19T10:26:58;11.90;;;11.10;;
3865;SDS011;1948;53.250;10.412;2023-06-19T10:29:37;12.23;;;11.23;;
3865;SDS011;1948;53.250;10.412;2023-06-19T10:32:14;12.37;;;11.17;;
3865;SDS011;1948;53.250;10.412;2023-06-19T10:34:45;15.07;;;10.33;;
3865;SDS011;1948;53.250;10.412;2023-06-19T10:37:15;10.47;;;9.73;;
3865;SDS011;1948;53.250;10.412;2023-06-19T10:40:00;11.33;;;10.57;;
3865;SDS011;1948;53.250;10.412;2023-06-19T10:42:39;12.60;;;11.20;;
3865;SDS011;1948;53.250;10.412;2023-06-19T10:45:07;17.00;;;11.83;;
3865;SDS011;1948;53.250;10.412;2023-06-19T10:47:39;11.63;;;10.80;;
3865;SDS011;1948;53.250;10.412;2023-06-19T10:50:13;12.13;;;11.23;;
3865;SDS011;1948;53.250;10.412;2023-06-19T10:52:44;15.30;;;10.93;;
3865;SDS011;1948;53.250;10.412;2023-06-19T10:55:12;11.63;;;10.33;;
3865;SDS011;1948;53.250;10.412;2023-06-19T10:57:45;12.60;;;11.33;;
3865;SDS011;1948;53.250;10.412;2023-06-19T11:00:23;12.80;;;10.30;;
3865;SDS011;1948;53.250;10.412;2023-06-19T11:02:56;14.20;;;10.03;;
3865;SDS011;1948;53.250;10.412;2023-06-19T11:05:26;11.37;;;10.23;;
3865;SDS011;1948;53.250;10.412;2023-06-19T11:07:57;13.67;;;10.50;;
3865;SDS011;1948;53.250;10.412;2023-06-19T11:10:27;9.77;;;9.13;;
3865;SDS011;1948;53.250;10.412;2023-06-19T11:13:01;21.13;;;10.87;;
3865;SDS011;1948;53.250;10.412;2023-06-19T11:15:34;10.60;;;9.80;;
3865;SDS011;1948;53.250;10.412;2023-06-19T11:18:04;10.20;;;9.60;;
3865;SDS011;1948;53.250;10.412;2023-06-19T11:20:44;10.27;;;9.30;;
3865;SDS011;1948;53.250;10.412;2023-06-19T11:23:14;10.00;;;9.30;;
3865;SDS011;1948;53.250;10.412;2023-06-19T11:25:46;10.57;;;9.10;;
3865;SDS011;1948;53.250;10.412;2023-06-19T11:28:16;11.53;;;9.90;;
3865;SDS011;1948;53.250;10.412;2023-06-19T11:30:59;10.27;;;9.30;;
3865;SDS011;1948;53.250;10.412;2023-06-19T11:33:29;14.00;;;9.80;;
3865;SDS011;1948;53.250;10.412;2023-06-19T11:35:59;12.93;;;11.60;;
3865;SDS011;1948;53.250;10.412;2023-06-19T11:38:27;13.33;;;9.23;;
3865;SDS011;1948;53.250;10.412;2023-06-19T11:40:55;14.07;;;9.50;;
3865;SDS011;1948;53.250;10.412;2023-06-19T11:43:32;11.20;;;10.10;;
3865;SDS011;1948;53.250;10.412;2023-06-19T11:46:02;12.33;;;9.27;;
3865;SDS011;1948;53.250;10.412;2023-06-19T11:48:30;9.77;;;8.80;;
3865;SDS011;1948;53.250;10.412;2023-06-19T11:51:05;10.00;;;9.03;;
3865;SDS011;1948;53.250;10.412;2023-06-19T11:53:32;10.23;;;9.53;;
3865;SDS011;1948;53.250;10.412;2023-06-19T11:55:59;9.50;;;8.80;;
3865;SDS011;1948;53.250;10.412;2023-06-19T11:58:26;9.00;;;8.43;;
3865;SDS011;1948;53.250;10.412;2023-06-19T12:00:53;8.53;;;7.83;;
3865;SDS011;1948;53.250;10.412;2023-06-19T12:03:22;7.80;;;7.30;;
3865;SDS011;1948;53.250;10.412;2023-06-19T12:05:54;8.30;;;7.90;;
3865;SDS011;1948;53.250;10.412;2023-06-19T12:08:23;7.30;;;7.00;;
3865;SDS011;1948;53.250;10.412;2023-06-19T12:10:50;11.77;;;7.87;;
3865;SDS011;1948;53.250;10.412;2023-06-19T12:13:19;8.07;;;7.57;;
3865;SDS011;1948;53.250;10.412;2023-06-19T12:15:49;9.27;;;8.40;;
3865;SDS011;1948;53.250;10.412;2023-06-19T12:18:17;8.93;;;8.33;;
3865;SDS011;1948;53.250;10.412;2023-06-19T12:20:44;8.57;;;8.03;;
3865;SDS011;1948;53.250;10.412;2023-06-19T12:23:11;9.20;;;8.50;;
3865;SDS011;1948;53.250;10.412;2023-06-19T12:25:38;14.33;;;9.60;;
3865;SDS011;1948;53.250;10.412;2023-06-19T12:28:05;9.57;;;8.77;;
3865;SDS011;1948;53.250;10.412;2023-06-19T12:30:36;10.27;;;8.90;;
3865;SDS011;1948;53.250;10.412;2023-06-19T12:33:05;17.10;;;8.30;;
3865;SDS011;1948;53.250;10.412;2023-06-19T12:35:40;16.33;;;9.77;;
3865;SDS011;1948;53.250;10.412;2023-06-19T12:38:10;9.33;;;8.50;;
3865;SDS011;1948;53.250;10.412;2023-06-19T12:40:40;8.37;;;7.87;;
3865;SDS011;1948;53.250;10.412;2023-06-19T12:43:10;8.10;;;7.80;;
3865;SDS011;1948;53.250;10.412;2023-06-19T12:45:37;10.57;;;9.00;;
3865;SDS011;1948;53.250;10.412;2023-06-19T12:48:04;11.77;;;8.27;;
3865;SDS011;1948;53.250;10.412;2023-06-19T12:50:31;13.23;;;7.57;;
3865;SDS011;1948;53.250;10.412;2023-06-19T12:53:00;9.03;;;8.23;;
3865;SDS011;1948;53.250;10.412;2023-06-19T12:55:30;13.70;;;9.20;;
3865;SDS011;1948;53.250;10.412;2023-06-19T12:57:57;9.50;;;8.53;;
3865;SDS011;1948;53.250;10.412;2023-06-19T13:00:24;10.83;;;9.50;;
3865;SDS011;1948;53.250;10.412;2023-06-19T13:02:51;8.63;;;8.07;;
3865;SDS011;1948;53.250;10.412;2023-06-19T13:05:18;11.00;;;8.80;;
3865;SDS011;1948;53.250;10.412;2023-06-19T13:07:45;7.73;;;7.23;;
3865;SDS011;1948;53.250;10.412;2023-06-19T13:10:16;8.80;;;6.93;;
3865;SDS011;1948;53.250;10.412;2023-06-19T13:12:47;7.13;;;6.80;;
3865;SDS011;1948;53.250;10.412;2023-06-19T13:15:19;7.07;;;6.50;;
3865;SDS011;1948;53.250;10.412;2023-06-19T13:17:48;6.30;;;6.10;;
3865;SDS011;1948;53.250;10.412;2023-06-19T13:20:15;6.40;;;6.10;;
3865;SDS011;1948;53.250;10.412;2023-06-19T13:22:45;7.20;;;6.70;;
3865;SDS011;1948;53.250;10.412;2023-06-19T13:25:12;7.47;;;6.80;;
3865;SDS011;1948;53.250;10.412;2023-06-19T13:27:43;6.60;;;6.10;;
3865;SDS011;1948;53.250;10.412;2023-06-19T13:30:13;6.67;;;6.00;;
3865;SDS011;1948;53.250;10.412;2023-06-19T13:32:40;6.93;;;5.80;;
3865;SDS011;1948;53.250;10.412;2023-06-19T13:35:11;5.50;;;5.20;;
3865;SDS011;1948;53.250;10.412;2023-06-19T13:37:38;5.67;;;5.17;;
3865;SDS011;1948;53.250;10.412;2023-06-19T13:40:06;4.90;;;4.80;;
3865;SDS011;1948;53.250;10.412;2023-06-19T13:42:38;5.87;;;5.13;;
3865;SDS011;1948;53.250;10.412;2023-06-19T13:45:05;5.63;;;5.13;;
3865;SDS011;1948;53.250;10.412;2023-06-19T13:47:35;6.43;;;4.87;;
3865;SDS011;1948;53.250;10.412;2023-06-19T13:50:05;10.90;;;5.00;;
3865;SDS011;1948;53.250;10.412;2023-06-19T13:52:36;6.80;;;4.60;;
3865;SDS011;1948;53.250;10.412;2023-06-19T13:55:05;5.43;;;4.60;;
3865;SDS011;1948;53.250;10.412;2023-06-19T13:57:35;4.73;;;4.40;;
3865;SDS011;1948;53.250;10.412;2023-06-19T14:00:03;4.70;;;4.40;;
3865;SDS011;1948;53.250;10.412;2023-06-19T14:02:37;4.03;;;3.93;;
3865;SDS011;1948;53.250;10.412;2023-06-19T14:05:05;4.63;;;4.43;;
3865;SDS011;1948;53.250;10.412;2023-06-19T14:07:34;3.63;;;3.53;;
3865;SDS011;1948;53.250;10.412;2023-06-19T14:10:04;4.10;;;3.77;;
3865;SDS011;1948;53.250;10.412;2023-06-19T14:12:39;3.97;;;3.87;;
3865;SDS011;1948;53.250;10.412;2023-06-19T14:15:09;3.37;;;3.27;;
3865;SDS011;1948;53.250;10.412;2023-06-19T14:17:38;3.07;;;3.00;;
3865;SDS011;1948;53.250;10.412;2023-06-19T14:20:08;4.53;;;4.13;;
3865;SDS011;1948;53.250;10.412;2023-06-19T14:22:39;8.20;;;3.30;;
3865;SDS011;1948;53.250;10.412;2023-06-19T14:25:09;5.00;;;3.07;;
3865;SDS011;1948;53.250;10.412;2023-06-19T14:27:36;3.60;;;3.47;;
3865;SDS011;1948;53.250;10.412;2023-06-19T14:30:06;6.03;;;3.27;;
3865;SDS011;1948;53.250;10.412;2023-06-19T14:32:37;3.33;;;3.07;;
3865;SDS011;1948;53.250;10.412;2023-06-19T14:35:04;3.73;;;3.13;;
3865;SDS011;1948;53.250;10.412;2023-06-19T14:37:32;6.93;;;3.50;;
3865;SDS011;1948;53.250;10.412;2023-06-19T14:48:11;3.87;;;3.50;;
3865;SDS011;1948;53.250;10.412;2023-06-19T14:50:43;3.47;;;3.40;;
3865;SDS011;1948;53.250;10.412;2023-06-19T14:53:10;3.70;;;3.50;;
3865;SDS011;1948;53.250;10.412;2023-06-19T14:55:40;4.13;;;3.90;;
3865;SDS011;1948;53.250;10.412;2023-06-19T14:58:13;3.20;;;3.20;;
3865;SDS011;1948;53.250;10.412;2023-06-19T15:00:40;4.67;;;3.10;;
3865;SDS011;1948;53.250;10.412;2023-06-19T15:03:10;7.03;;;3.30;;